sensor_id;sensor_type;location;lat;lon;timestamp;pressure;altitude;pressure_sealevel;temperature;humidity
15568;BME280;7885;42.596;23.044;2022-10-23T00:00:59;93478.91;;;12.71;74.90
15568;BME280;7885;42.596;23.044;2022-10-23T00:03:27;93469.16;;;12.63;74.11
15568;BME280;7885;42.596;23.044;2022-10-23T00:05:54;93483.94;;;12.73;74.24
15568;BME280;7885;42.596;23.044;2022-10-23T00:08:21;93480.06;;;12.70;74.46
15568;BME280;7885;42.596;23.044;2022-10-23T00:10:48;93444.22;;;12.43;74.44
15568;BME280;7885;42.596;23.044;2022-10-23T00:13:14;93479.28;;;12.66;74.85
15568;BME280;7885;42.596;23.044;2022-10-23T00:15:42;93501.50;;;12.82;74.71
15568;BME280;7885;42.596;23.044;2022-10-23T00:18:08;93502.66;;;12.92;74.62
15568;BME280;7885;42.596;23.044;2022-10-23T00:20:37;93483.13;;;12.83;74.33
15568;BME280;7885;42.596;23.044;2022-10-23T00:23:03;93495.59;;;13.01;74.42
15568;BME280;7885;42.596;23.044;2022-10-23T00:25:30;93493.22;;;13.00;74.39
15568;BME280;7885;42.596;23.044;2022-10-23T00:27:58;93488.59;;;12.86;74.46
15568;BME280;7885;42.596;23.044;2022-10-23T00:30:24;93437.97;;;12.53;74.61
15568;BME280;7885;42.596;23.044;2022-10-23T00:32:51;93480.84;;;12.71;74.60
15568;BME280;7885;42.596;23.044;2022-10-23T00:35:18;93495.66;;;12.77;74.84
15568;BME280;7885;42.596;23.044;2022-10-23T00:37:46;93483.19;;;12.69;74.50
15568;BME280;7885;42.596;23.044;2022-10-23T00:40:13;93487.44;;;12.77;74.19
15568;BME280;7885;42.596;23.044;2022-10-23T00:42:40;93517.44;;;12.98;74.02
15568;BME280;7885;42.596;23.044;2022-10-23T00:45:12;93512.00;;;12.91;74.19
15568;BME280;7885;42.596;23.044;2022-10-23T00:47:39;93510.44;;;12.93;73.75
15568;BME280;7885;42.596;23.044;2022-10-23T00:50:07;93526.47;;;12.88;73.87
15568;BME280;7885;42.596;23.044;2022-10-23T00:52:37;93459.03;;;12.46;73.78
15568;BME280;7885;42.596;23.044;2022-10-23T00:55:08;93525.28;;;12.89;74.30
15568;BME280;7885;42.596;23.044;2022-10-23T00:57:34;93526.81;;;12.93;74.14
15568;BME280;7885;42.596;23.044;2022-10-23T01:00:02;93532.38;;;12.54;74.39
15568;BME280;7885;42.596;23.044;2022-10-23T01:02:29;93521.84;;;12.35;76.03
15568;BME280;7885;42.596;23.044;2022-10-23T01:04:56;93521.44;;;12.19;76.61
15568;BME280;7885;42.596;23.044;2022-10-23T01:07:27;93530.03;;;12.35;76.98
15568;BME280;7885;42.596;23.044;2022-10-23T01:10:01;93540.16;;;12.42;77.00
15568;BME280;7885;42.596;23.044;2022-10-23T01:12:37;93541.34;;;12.44;76.41
15568;BME280;7885;42.596;23.044;2022-10-23T01:15:12;93517.16;;;12.25;75.84
15568;BME280;7885;42.596;23.044;2022-10-23T01:17:45;93550.28;;;12.34;77.10
15568;BME280;7885;42.596;23.044;2022-10-23T01:20:30;93546.81;;;12.51;77.14
15568;BME280;7885;42.596;23.044;2022-10-23T01:23:25;93553.44;;;12.61;76.66
15568;BME280;7885;42.596;23.044;2022-10-23T01:26:22;93536.25;;;12.75;76.15
15568;BME280;7885;42.596;23.044;2022-10-23T01:28:58;93524.53;;;12.63;76.14
15568;BME280;7885;42.596;23.044;2022-10-23T01:31:32;93543.22;;;12.83;76.23
15568;BME280;7885;42.596;23.044;2022-10-23T01:34:06;93538.53;;;12.87;75.83
15568;BME280;7885;42.596;23.044;2022-10-23T01:36:38;93538.53;;;12.94;75.64
15568;BME280;7885;42.596;23.044;2022-10-23T01:39:10;93526.81;;;12.97;75.20
15568;BME280;7885;42.596;23.044;2022-10-23T01:41:40;93547.13;;;13.03;75.41
15568;BME280;7885;42.596;23.044;2022-10-23T01:44:15;93533.06;;;12.97;75.71
15568;BME280;7885;42.596;23.044;2022-10-23T01:46:46;93542.41;;;13.07;75.36
15568;BME280;7885;42.596;23.044;2022-10-23T01:49:16;93508.91;;;12.92;75.41
15568;BME280;7885;42.596;23.044;2022-10-23T01:51:48;93538.50;;;13.15;75.15
15568;BME280;7885;42.596;23.044;2022-10-23T01:54:18;93517.44;;;13.05;75.48
15568;BME280;7885;42.596;23.044;2022-10-23T01:56:47;93513.91;;;13.22;75.12
15568;BME280;7885;42.596;23.044;2022-10-23T01:59:20;93516.63;;;13.19;76.03
15568;BME280;7885;42.596;23.044;2022-10-23T02:01:50;93524.47;;;13.20;76.62
15568;BME280;7885;42.596;23.044;2022-10-23T02:04:23;93523.69;;;13.16;76.93
15568;BME280;7885;42.596;23.044;2022-10-23T02:06:50;93530.69;;;13.13;76.82
15568;BME280;7885;42.596;23.044;2022-10-23T02:09:17;93538.50;;;13.15;76.25
15568;BME280;7885;42.596;23.044;2022-10-23T02:11:52;93536.94;;;13.18;75.79
15568;BME280;7885;42.596;23.044;2022-10-23T02:14:29;93539.28;;;13.19;75.99
15568;BME280;7885;42.596;23.044;2022-10-23T02:17:02;93536.94;;;13.07;77.31
15568;BME280;7885;42.596;23.044;2022-10-23T02:19:41;93546.72;;;13.04;77.45
15568;BME280;7885;42.596;23.044;2022-10-23T02:22:12;93553.41;;;12.86;76.99
15568;BME280;7885;42.596;23.044;2022-10-23T02:24:44;93549.47;;;12.87;77.36
15568;BME280;7885;42.596;23.044;2022-10-23T02:27:17;93546.34;;;12.95;77.07
15568;BME280;7885;42.596;23.044;2022-10-23T02:29:51;93515.16;;;12.86;76.41
15568;BME280;7885;42.596;23.044;2022-10-23T02:32:20;93543.63;;;12.85;76.87
15568;BME280;7885;42.596;23.044;2022-10-23T02:34:49;93551.03;;;12.88;76.98
15568;BME280;7885;42.596;23.044;2022-10-23T02:37:15;93536.22;;;12.82;76.81
15568;BME280;7885;42.596;23.044;2022-10-23T02:39:42;93538.13;;;13.02;76.51
15568;BME280;7885;42.596;23.044;2022-10-23T02:42:13;93547.13;;;13.10;75.65
15568;BME280;7885;42.596;23.044;2022-10-23T02:44:54;93529.53;;;13.04;75.82
15568;BME280;7885;42.596;23.044;2022-10-23T02:47:34;93538.88;;;13.24;76.18
15568;BME280;7885;42.596;23.044;2022-10-23T02:50:09;93533.81;;;13.19;76.36
15568;BME280;7885;42.596;23.044;2022-10-23T02:52:46;93523.69;;;13.20;76.00
15568;BME280;7885;42.596;23.044;2022-10-23T02:55:23;93470.66;;;12.89;76.05
15568;BME280;7885;42.596;23.044;2022-10-23T02:57:58;93510.03;;;13.16;75.22
15568;BME280;7885;42.596;23.044;2022-10-23T03:00:31;93537.31;;;13.30;75.03
15568;BME280;7885;42.596;23.044;2022-10-23T03:03:01;93553.28;;;13.35;75.61
15568;BME280;7885;42.596;23.044;2022-10-23T03:05:34;93503.44;;;12.92;76.31
15568;BME280;7885;42.596;23.044;2022-10-23T03:08:12;93574.38;;;13.31;76.13
15568;BME280;7885;42.596;23.044;2022-10-23T03:10:40;93564.28;;;13.18;75.94
15568;BME280;7885;42.596;23.044;2022-10-23T03:13:08;93572.09;;;13.19;75.82
15568;BME280;7885;42.596;23.044;2022-10-23T03:15:36;93581.44;;;13.04;76.22
15568;BME280;7885;42.596;23.044;2022-10-23T03:18:03;93578.34;;;12.88;76.86
15568;BME280;7885;42.596;23.044;2022-10-23T03:20:30;93542.88;;;12.45;77.83
15568;BME280;7885;42.596;23.044;2022-10-23T03:22:57;93540.16;;;12.21;78.83
15568;BME280;7885;42.596;23.044;2022-10-23T03:25:23;93583.84;;;12.38;79.57
15568;BME280;7885;42.596;23.044;2022-10-23T03:27:50;93574.09;;;12.30;80.06
15568;BME280;7885;42.596;23.044;2022-10-23T03:30:17;93586.16;;;12.22;79.08
15568;BME280;7885;42.596;23.044;2022-10-23T03:32:45;93580.69;;;12.11;78.63
15568;BME280;7885;42.596;23.044;2022-10-23T03:35:12;93579.09;;;12.00;79.13
15568;BME280;7885;42.596;23.044;2022-10-23T03:37:39;93591.22;;;12.02;80.00
15568;BME280;7885;42.596;23.044;2022-10-23T03:40:07;93596.25;;;12.00;80.22
15568;BME280;7885;42.596;23.044;2022-10-23T03:42:34;93604.84;;;11.99;80.59
15568;BME280;7885;42.596;23.044;2022-10-23T03:45:01;93540.81;;;11.57;81.21
15568;BME280;7885;42.596;23.044;2022-10-23T03:47:27;93599.38;;;11.92;80.82
15568;BME280;7885;42.596;23.044;2022-10-23T03:49:56;93614.94;;;11.91;78.77
15568;BME280;7885;42.596;23.044;2022-10-23T03:52:23;93616.06;;;11.80;77.56
15568;BME280;7885;42.596;23.044;2022-10-23T03:54:50;93585.22;;;11.58;79.45
15568;BME280;7885;42.596;23.044;2022-10-23T03:57:16;93594.91;;;11.55;80.53
15568;BME280;7885;42.596;23.044;2022-10-23T03:59:43;93608.53;;;11.52;79.53
15568;BME280;7885;42.596;23.044;2022-10-23T04:02:10;93600.72;;;11.43;81.59
15568;BME280;7885;42.596;23.044;2022-10-23T04:04:37;93590.09;;;11.24;80.87
15568;BME280;7885;42.596;23.044;2022-10-23T04:07:05;93601.34;;;11.15;80.61
15568;BME280;7885;42.596;23.044;2022-10-23T04:09:32;93620.47;;;11.26;82.48
15568;BME280;7885;42.596;23.044;2022-10-23T04:11:59;93586.53;;;11.09;83.43
15568;BME280;7885;42.596;23.044;2022-10-23T04:14:26;93621.34;;;11.37;82.20
15568;BME280;7885;42.596;23.044;2022-10-23T04:16:52;93624.81;;;11.41;82.24
15568;BME280;7885;42.596;23.044;2022-10-23T04:19:19;93608.09;;;11.43;82.78
15568;BME280;7885;42.596;23.044;2022-10-23T04:21:46;93621.78;;;11.50;80.98
15568;BME280;7885;42.596;23.044;2022-10-23T04:24:14;93521.75;;;10.75;80.16
15568;BME280;7885;42.596;23.044;2022-10-23T04:26:41;93592.03;;;11.20;80.10
15568;BME280;7885;42.596;23.044;2022-10-23T04:29:07;93623.22;;;11.30;80.21
15568;BME280;7885;42.596;23.044;2022-10-23T04:31:34;93529.84;;;10.60;79.57
15568;BME280;7885;42.596;23.044;2022-10-23T04:34:01;93633.69;;;11.24;79.92
15568;BME280;7885;42.596;23.044;2022-10-23T04:36:28;93634.88;;;11.23;79.00
15568;BME280;7885;42.596;23.044;2022-10-23T04:38:54;93642.59;;;11.18;80.38
15568;BME280;7885;42.596;23.044;2022-10-23T04:41:23;93601.97;;;10.88;80.93
15568;BME280;7885;42.596;23.044;2022-10-23T04:43:49;93641.88;;;11.24;80.23
15568;BME280;7885;42.596;23.044;2022-10-23T04:46:16;93634.09;;;11.23;80.16
15568;BME280;7885;42.596;23.044;2022-10-23T04:48:43;93637.56;;;11.16;78.27
15568;BME280;7885;42.596;23.044;2022-10-23T04:51:10;93639.44;;;11.08;78.67
15568;BME280;7885;42.596;23.044;2022-10-23T04:53:37;93643.69;;;11.02;78.89
15568;BME280;7885;42.596;23.044;2022-10-23T04:56:04;93598.78;;;10.79;79.54
15568;BME280;7885;42.596;23.044;2022-10-23T04:58:32;93638.63;;;11.01;79.73
15568;BME280;7885;42.596;23.044;2022-10-23T05:00:59;93613.50;;;10.71;78.56
15568;BME280;7885;42.596;23.044;2022-10-23T05:03:26;93645.13;;;10.86;78.80
15568;BME280;7885;42.596;23.044;2022-10-23T05:05:54;93620.09;;;10.70;79.98
15568;BME280;7885;42.596;23.044;2022-10-23T05:08:22;93659.84;;;10.78;80.11
15568;BME280;7885;42.596;23.044;2022-10-23T05:10:49;93659.09;;;10.81;81.45
15568;BME280;7885;42.596;23.044;2022-10-23T05:13:16;93672.25;;;10.72;82.87
15568;BME280;7885;42.596;23.044;2022-10-23T05:15:46;93659.69;;;10.60;82.83
15568;BME280;7885;42.596;23.044;2022-10-23T05:18:17;93668.84;;;10.41;83.66
15568;BME280;7885;42.596;23.044;2022-10-23T05:20:47;93656.72;;;10.32;84.47
15568;BME280;7885;42.596;23.044;2022-10-23T05:23:17;93643.44;;;10.23;84.27
15568;BME280;7885;42.596;23.044;2022-10-23T05:29:08;93671.69;;;10.55;86.11
15568;BME280;7885;42.596;23.044;2022-10-23T05:31:36;93677.63;;;10.64;86.47
15568;BME280;7885;42.596;23.044;2022-10-23T05:34:03;93676.56;;;10.80;83.92
15568;BME280;7885;42.596;23.044;2022-10-23T05:36:30;93687.47;;;10.80;82.78
15568;BME280;7885;42.596;23.044;2022-10-23T05:38:58;93669.53;;;10.72;82.34
15568;BME280;7885;42.596;23.044;2022-10-23T05:41:25;93673.53;;;10.85;82.02
15568;BME280;7885;42.596;23.044;2022-10-23T05:43:51;93699.47;;;11.19;81.24
15568;BME280;7885;42.596;23.044;2022-10-23T05:46:18;93687.88;;;11.33;79.99
15568;BME280;7885;42.596;23.044;2022-10-23T05:48:50;93705.19;;;11.61;80.19
15568;BME280;7885;42.596;23.044;2022-10-23T05:51:18;93687.38;;;11.78;79.77
15568;BME280;7885;42.596;23.044;2022-10-23T05:53:47;93696.84;;;12.12;79.49
15568;BME280;7885;42.596;23.044;2022-10-23T05:56:14;93702.38;;;12.30;79.45
15568;BME280;7885;42.596;23.044;2022-10-23T05:58:41;93700.47;;;12.55;79.56
15568;BME280;7885;42.596;23.044;2022-10-23T06:01:10;93698.94;;;12.86;78.52
15568;BME280;7885;42.596;23.044;2022-10-23T06:03:38;93725.16;;;13.37;76.92
15568;BME280;7885;42.596;23.044;2022-10-23T06:06:07;93715.50;;;14.33;73.58
15568;BME280;7885;42.596;23.044;2022-10-23T06:08:34;93730.50;;;16.85;65.66
15568;BME280;7885;42.596;23.044;2022-10-23T06:11:05;93734.00;;;19.59;55.27
15568;BME280;7885;42.596;23.044;2022-10-23T06:13:32;93715.25;;;21.74;47.83
15568;BME280;7885;42.596;23.044;2022-10-23T06:16:07;93730.59;;;23.83;42.00
15568;BME280;7885;42.596;23.044;2022-10-23T06:18:34;93734.94;;;25.47;36.87
15568;BME280;7885;42.596;23.044;2022-10-23T06:21:01;93745.00;;;26.91;33.76
15568;BME280;7885;42.596;23.044;2022-10-23T06:23:30;93747.50;;;28.06;30.97
15568;BME280;7885;42.596;23.044;2022-10-23T06:25:57;93755.22;;;29.32;29.04
15568;BME280;7885;42.596;23.044;2022-10-23T06:28:24;93746.38;;;30.33;26.68
15568;BME280;7885;42.596;23.044;2022-10-23T06:30:51;93743.47;;;31.24;25.05
15568;BME280;7885;42.596;23.044;2022-10-23T06:33:18;93715.94;;;31.89;24.01
15568;BME280;7885;42.596;23.044;2022-10-23T06:35:45;93764.50;;;32.78;23.66
15568;BME280;7885;42.596;23.044;2022-10-23T06:38:12;93743.44;;;33.42;22.50
15568;BME280;7885;42.596;23.044;2022-10-23T06:40:40;93770.44;;;34.44;21.26
15568;BME280;7885;42.596;23.044;2022-10-23T06:43:09;93750.09;;;35.18;20.55
15568;BME280;7885;42.596;23.044;2022-10-23T06:45:36;93777.19;;;35.88;19.76
15568;BME280;7885;42.596;23.044;2022-10-23T06:48:04;93782.69;;;36.63;19.30
15568;BME280;7885;42.596;23.044;2022-10-23T06:50:31;93760.38;;;37.12;18.33
15568;BME280;7885;42.596;23.044;2022-10-23T06:52:58;93781.94;;;37.41;17.73
15568;BME280;7885;42.596;23.044;2022-10-23T06:55:24;93777.91;;;37.63;17.75
15568;BME280;7885;42.596;23.044;2022-10-23T06:57:53;93794.66;;;38.21;17.40
15568;BME280;7885;42.596;23.044;2022-10-23T07:00:20;93786.91;;;38.84;17.16
15568;BME280;7885;42.596;23.044;2022-10-23T07:02:47;93769.84;;;39.12;16.81
15568;BME280;7885;42.596;23.044;2022-10-23T07:05:13;93796.47;;;39.51;15.69
15568;BME280;7885;42.596;23.044;2022-10-23T07:07:40;93779.03;;;38.98;15.72
15568;BME280;7885;42.596;23.044;2022-10-23T07:10:07;93782.84;;;36.07;17.24
15568;BME280;7885;42.596;23.044;2022-10-23T07:12:34;93771.72;;;33.78;19.43
15568;BME280;7885;42.596;23.044;2022-10-23T07:15:03;93771.38;;;35.81;18.40
15568;BME280;7885;42.596;23.044;2022-10-23T07:17:30;93800.25;;;38.48;16.56
15568;BME280;7885;42.596;23.044;2022-10-23T07:19:57;93796.22;;;40.35;14.93
15568;BME280;7885;42.596;23.044;2022-10-23T07:22:23;93790.91;;;41.30;14.04
15568;BME280;7885;42.596;23.044;2022-10-23T07:24:50;93799.22;;;42.78;13.59
15568;BME280;7885;42.596;23.044;2022-10-23T07:27:17;93803.53;;;43.88;13.10
15568;BME280;7885;42.596;23.044;2022-10-23T07:29:44;93810.09;;;44.69;12.79
15568;BME280;7885;42.596;23.044;2022-10-23T07:32:12;93801.16;;;45.47;12.20
15568;BME280;7885;42.596;23.044;2022-10-23T07:34:39;93799.41;;;45.81;11.50
15568;BME280;7885;42.596;23.044;2022-10-23T07:37:06;93806.47;;;46.47;11.09
15568;BME280;7885;42.596;23.044;2022-10-23T07:39:33;93785.47;;;46.75;10.73
15568;BME280;7885;42.596;23.044;2022-10-23T07:42:00;93784.88;;;47.07;10.76
15568;BME280;7885;42.596;23.044;2022-10-23T07:44:27;93783.00;;;47.43;10.28
15568;BME280;7885;42.596;23.044;2022-10-23T07:46:54;93797.28;;;47.20;10.40
15568;BME280;7885;42.596;23.044;2022-10-23T07:49:22;93783.78;;;47.86;10.35
15568;BME280;7885;42.596;23.044;2022-10-23T07:51:49;93793.19;;;48.07;10.09
15568;BME280;7885;42.596;23.044;2022-10-23T07:54:18;93803.53;;;48.22;10.04
15568;BME280;7885;42.596;23.044;2022-10-23T07:56:45;93763.94;;;48.46;9.90
15568;BME280;7885;42.596;23.044;2022-10-23T07:59:12;93796.59;;;49.04;9.87
15568;BME280;7885;42.596;23.044;2022-10-23T08:01:41;93782.75;;;49.26;9.40
15568;BME280;7885;42.596;23.044;2022-10-23T08:04:09;93792.69;;;49.00;9.84
15568;BME280;7885;42.596;23.044;2022-10-23T08:06:37;93767.47;;;48.44;9.77
15568;BME280;7885;42.596;23.044;2022-10-23T08:09:04;93788.38;;;48.66;9.80
15568;BME280;7885;42.596;23.044;2022-10-23T08:11:31;93765.94;;;48.10;9.83
15568;BME280;7885;42.596;23.044;2022-10-23T08:14:00;93788.81;;;48.51;10.08
15568;BME280;7885;42.596;23.044;2022-10-23T08:16:29;93775.69;;;48.94;10.13
15568;BME280;7885;42.596;23.044;2022-10-23T08:18:57;93775.84;;;48.96;9.82
15568;BME280;7885;42.596;23.044;2022-10-23T08:21:24;93767.75;;;49.53;9.66
15568;BME280;7885;42.596;23.044;2022-10-23T08:23:54;93777.72;;;49.98;9.34
15568;BME280;7885;42.596;23.044;2022-10-23T08:26:21;93751.91;;;49.54;9.69
15568;BME280;7885;42.596;23.044;2022-10-23T08:28:49;93778.38;;;49.14;9.88
15568;BME280;7885;42.596;23.044;2022-10-23T08:31:17;93769.88;;;49.64;9.57
15568;BME280;7885;42.596;23.044;2022-10-23T08:33:44;93772.63;;;50.11;9.48
15568;BME280;7885;42.596;23.044;2022-10-23T08:36:17;93778.09;;;50.30;9.38
15568;BME280;7885;42.596;23.044;2022-10-23T08:38:44;93771.84;;;49.85;9.52
15568;BME280;7885;42.596;23.044;2022-10-23T08:41:23;93778.75;;;49.91;9.44
15568;BME280;7885;42.596;23.044;2022-10-23T08:43:53;93756.44;;;50.05;9.32
15568;BME280;7885;42.596;23.044;2022-10-23T08:46:24;93778.28;;;50.20;9.34
15568;BME280;7885;42.596;23.044;2022-10-23T08:48:58;93780.28;;;50.18;9.49
15568;BME280;7885;42.596;23.044;2022-10-23T08:51:34;93773.06;;;49.45;9.68
15568;BME280;7885;42.596;23.044;2022-10-23T08:54:06;93763.03;;;48.99;10.07
15568;BME280;7885;42.596;23.044;2022-10-23T08:56:40;93753.19;;;49.39;9.87
15568;BME280;7885;42.596;23.044;2022-10-23T08:59:14;93765.22;;;49.59;10.09
15568;BME280;7885;42.596;23.044;2022-10-23T09:01:47;93767.56;;;49.86;9.82
15568;BME280;7885;42.596;23.044;2022-10-23T09:04:15;93768.78;;;49.46;10.12
15568;BME280;7885;42.596;23.044;2022-10-23T09:06:46;93769.75;;;49.62;9.99
15568;BME280;7885;42.596;23.044;2022-10-23T09:12:26;93774.28;;;49.65;9.81
15568;BME280;7885;42.596;23.044;2022-10-23T09:15:02;93780.25;;;49.44;10.05
15568;BME280;7885;42.596;23.044;2022-10-23T09:17:31;93758.13;;;49.85;9.54
15568;BME280;7885;42.596;23.044;2022-10-23T09:20:04;93771.25;;;49.75;9.77
15568;BME280;7885;42.596;23.044;2022-10-23T09:22:33;93772.44;;;50.07;9.83
15568;BME280;7885;42.596;23.044;2022-10-23T09:24:59;93773.19;;;49.95;9.61
15568;BME280;7885;42.596;23.044;2022-10-23T09:27:28;93768.97;;;49.73;9.66
15568;BME280;7885;42.596;23.044;2022-10-23T09:29:55;93757.09;;;49.44;10.03
15568;BME280;7885;42.596;23.044;2022-10-23T09:32:34;93736.03;;;49.55;9.75
15568;BME280;7885;42.596;23.044;2022-10-23T09:35:01;93760.38;;;49.15;10.21
15568;BME280;7885;42.596;23.044;2022-10-23T09:37:30;93764.97;;;48.18;10.52
15568;BME280;7885;42.596;23.044;2022-10-23T09:40:02;93760.81;;;48.21;10.44
15568;BME280;7885;42.596;23.044;2022-10-23T09:42:30;93755.63;;;48.07;10.24
15568;BME280;7885;42.596;23.044;2022-10-23T09:44:57;93738.78;;;47.71;10.78
15568;BME280;7885;42.596;23.044;2022-10-23T09:47:24;93764.56;;;48.11;10.57
15568;BME280;7885;42.596;23.044;2022-10-23T09:49:54;93761.53;;;48.31;10.39
15568;BME280;7885;42.596;23.044;2022-10-23T09:52:24;93687.13;;;47.75;10.25
15568;BME280;7885;42.596;23.044;2022-10-23T09:54:56;93730.00;;;47.48;10.92
15568;BME280;7885;42.596;23.044;2022-10-23T09:57:28;93738.38;;;47.44;10.87
15568;BME280;7885;42.596;23.044;2022-10-23T10:00:00;93753.81;;;47.91;10.45
15568;BME280;7885;42.596;23.044;2022-10-23T10:02:29;93719.22;;;48.02;10.44
15568;BME280;7885;42.596;23.044;2022-10-23T10:04:57;93741.75;;;48.16;10.50
15568;BME280;7885;42.596;23.044;2022-10-23T10:07:25;93736.09;;;48.18;10.39
15568;BME280;7885;42.596;23.044;2022-10-23T10:09:53;93731.69;;;48.17;10.47
15568;BME280;7885;42.596;23.044;2022-10-23T10:15:19;93705.91;;;47.76;10.53
15568;BME280;7885;42.596;23.044;2022-10-23T10:17:56;93681.47;;;46.31;10.99
15568;BME280;7885;42.596;23.044;2022-10-23T10:20:51;93730.13;;;46.27;11.18
15568;BME280;7885;42.596;23.044;2022-10-23T10:23:27;93724.97;;;46.65;11.20
15568;BME280;7885;42.596;23.044;2022-10-23T10:26:01;93727.88;;;46.15;11.47
15568;BME280;7885;42.596;23.044;2022-10-23T10:28:53;93727.44;;;46.09;11.97
15568;BME280;7885;42.596;23.044;2022-10-23T10:31:34;93720.59;;;44.09;12.73
15568;BME280;7885;42.596;23.044;2022-10-23T10:34:10;93701.44;;;44.39;12.41
15568;BME280;7885;42.596;23.044;2022-10-23T10:36:46;93696.81;;;45.08;12.03
15568;BME280;7885;42.596;23.044;2022-10-23T10:39:23;93706.56;;;45.42;11.83
15568;BME280;7885;42.596;23.044;2022-10-23T10:42:01;93698.13;;;44.79;11.76
15568;BME280;7885;42.596;23.044;2022-10-23T10:44:43;93698.75;;;44.50;11.90
15568;BME280;7885;42.596;23.044;2022-10-23T10:47:20;93690.47;;;45.00;11.68
15568;BME280;7885;42.596;23.044;2022-10-23T10:49:58;93701.72;;;45.54;11.42
15568;BME280;7885;42.596;23.044;2022-10-23T10:52:32;93695.03;;;44.57;11.41
15568;BME280;7885;42.596;23.044;2022-10-23T10:55:13;93701.31;;;44.92;11.49
15568;BME280;7885;42.596;23.044;2022-10-23T10:57:45;93654.06;;;44.57;11.73
15568;BME280;7885;42.596;23.044;2022-10-23T11:00:15;93682.84;;;44.40;12.14
15568;BME280;7885;42.596;23.044;2022-10-23T11:02:47;93686.25;;;44.19;11.98
15568;BME280;7885;42.596;23.044;2022-10-23T11:05:21;93696.13;;;43.82;11.92
15568;BME280;7885;42.596;23.044;2022-10-23T11:07:56;93681.41;;;42.33;12.83
15568;BME280;7885;42.596;23.044;2022-10-23T11:10:25;93675.19;;;41.94;13.03
15568;BME280;7885;42.596;23.044;2022-10-23T11:12:52;93653.16;;;41.32;13.74
15568;BME280;7885;42.596;23.044;2022-10-23T11:15:21;93672.97;;;40.29;14.53
15568;BME280;7885;42.596;23.044;2022-10-23T11:17:55;93667.00;;;39.97;15.09
15568;BME280;7885;42.596;23.044;2022-10-23T11:20:43;93671.94;;;38.87;15.88
15568;BME280;7885;42.596;23.044;2022-10-23T11:23:32;93658.91;;;37.80;16.30
15568;BME280;7885;42.596;23.044;2022-10-23T11:26:21;93603.03;;;36.94;16.73
15568;BME280;7885;42.596;23.044;2022-10-23T11:29:02;93658.16;;;36.99;16.79
15568;BME280;7885;42.596;23.044;2022-10-23T11:31:38;93606.03;;;36.63;16.77
15568;BME280;7885;42.596;23.044;2022-10-23T11:37:02;93612.81;;;36.33;17.38
15568;BME280;7885;42.596;23.044;2022-10-23T11:39:31;93644.66;;;36.39;17.63
15568;BME280;7885;42.596;23.044;2022-10-23T11:42:10;93636.06;;;36.00;18.16
15568;BME280;7885;42.596;23.044;2022-10-23T11:44:42;93586.25;;;35.78;17.57
15568;BME280;7885;42.596;23.044;2022-10-23T11:47:29;93618.44;;;36.07;17.91
15568;BME280;7885;42.596;23.044;2022-10-23T11:50:25;93630.84;;;36.04;18.23
15568;BME280;7885;42.596;23.044;2022-10-23T11:52:58;93629.97;;;35.96;17.76
15568;BME280;7885;42.596;23.044;2022-10-23T11:55:27;93614.94;;;36.01;17.71
15568;BME280;7885;42.596;23.044;2022-10-23T11:58:20;93617.16;;;36.21;17.88
15568;BME280;7885;42.596;23.044;2022-10-23T12:00:55;93610.72;;;36.21;17.18
15568;BME280;7885;42.596;23.044;2022-10-23T12:03:28;93622.50;;;36.38;16.98
15568;BME280;7885;42.596;23.044;2022-10-23T12:06:04;93586.63;;;36.27;16.89
15568;BME280;7885;42.596;23.044;2022-10-23T12:08:33;93591.97;;;36.31;17.34
15568;BME280;7885;42.596;23.044;2022-10-23T12:11:01;93607.16;;;36.20;17.29
15568;BME280;7885;42.596;23.044;2022-10-23T12:13:43;93602.97;;;36.08;17.92
15568;BME280;7885;42.596;23.044;2022-10-23T12:16:11;93603.16;;;35.97;17.90
15568;BME280;7885;42.596;23.044;2022-10-23T12:18:46;93584.72;;;35.77;17.53
15568;BME280;7885;42.596;23.044;2022-10-23T12:21:18;93603.75;;;35.64;17.87
15568;BME280;7885;42.596;23.044;2022-10-23T12:24:05;93604.84;;;35.61;17.97
15568;BME280;7885;42.596;23.044;2022-10-23T12:26:50;93600.03;;;35.69;18.12
15568;BME280;7885;42.596;23.044;2022-10-23T12:29:30;93595.84;;;35.88;17.59
15568;BME280;7885;42.596;23.044;2022-10-23T12:32:07;93594.84;;;35.86;17.93
15568;BME280;7885;42.596;23.044;2022-10-23T12:34:49;93591.59;;;34.81;18.45
15568;BME280;7885;42.596;23.044;2022-10-23T12:37:38;93579.91;;;34.71;18.55
15568;BME280;7885;42.596;23.044;2022-10-23T12:40:13;93585.00;;;34.73;18.66
15568;BME280;7885;42.596;23.044;2022-10-23T12:42:49;93586.50;;;34.36;19.40
15568;BME280;7885;42.596;23.044;2022-10-23T12:45:19;93587.91;;;34.00;19.31
15568;BME280;7885;42.596;23.044;2022-10-23T12:47:49;93594.66;;;33.37;19.21
15568;BME280;7885;42.596;23.044;2022-10-23T12:50:18;93548.59;;;32.83;19.61
15568;BME280;7885;42.596;23.044;2022-10-23T12:52:55;93525.47;;;32.95;19.89
15568;BME280;7885;42.596;23.044;2022-10-23T12:55:24;93594.06;;;33.44;20.14
15568;BME280;7885;42.596;23.044;2022-10-23T12:57:52;93565.69;;;33.31;19.83
15568;BME280;7885;42.596;23.044;2022-10-23T13:00:20;93577.00;;;33.31;20.05
15568;BME280;7885;42.596;23.044;2022-10-23T13:02:57;93561.25;;;33.12;20.56
15568;BME280;7885;42.596;23.044;2022-10-23T13:05:24;93582.03;;;33.03;20.84
15568;BME280;7885;42.596;23.044;2022-10-23T13:07:54;93586.19;;;33.02;20.68
15568;BME280;7885;42.596;23.044;2022-10-23T13:10:23;93585.47;;;32.90;20.87
15568;BME280;7885;42.596;23.044;2022-10-23T13:12:53;93581.69;;;32.82;20.89
15568;BME280;7885;42.596;23.044;2022-10-23T13:15:21;93586.47;;;32.98;20.88
15568;BME280;7885;42.596;23.044;2022-10-23T13:17:59;93587.69;;;32.68;21.14
15568;BME280;7885;42.596;23.044;2022-10-23T13:20:28;93520.56;;;32.03;21.55
15568;BME280;7885;42.596;23.044;2022-10-23T13:23:00;93592.97;;;32.30;21.03
15568;BME280;7885;42.596;23.044;2022-10-23T13:25:29;93590.41;;;32.21;21.24
15568;BME280;7885;42.596;23.044;2022-10-23T13:28:21;93589.66;;;32.26;21.33
15568;BME280;7885;42.596;23.044;2022-10-23T13:31:03;93593.31;;;31.99;21.19
15568;BME280;7885;42.596;23.044;2022-10-23T13:33:34;93583.88;;;31.74;21.00